createdAt,value
2022-11-01T00:00:17.969Z,952.52
2022-11-01T00:01:17.985Z,952.45
2022-11-01T00:02:18.025Z,952.51
2022-11-01T00:03:17.943Z,952.51
2022-11-01T00:04:17.928Z,952.5
2022-11-01T00:05:17.924Z,952.47
2022-11-01T00:06:17.906Z,952.55
2022-11-01T00:07:17.919Z,952.48
2022-11-01T00:08:17.889Z,952.57
2022-11-01T00:09:17.878Z,952.52
2022-11-01T00:11:17.861Z,952.52
2022-11-01T00:12:17.846Z,952.5
2022-11-01T00:13:17.838Z,952.51
2022-11-01T00:14:17.827Z,952.47
2022-11-01T00:15:17.816Z,952.55
2022-11-01T00:16:17.804Z,952.5
2022-11-01T00:17:17.796Z,952.48
2022-11-01T00:18:17.787Z,952.55
2022-11-01T00:19:17.785Z,952.53
2022-11-01T00:20:17.767Z,952.52
2022-11-01T00:21:17.755Z,952.54
2022-11-01T00:22:17.746Z,952.53
2022-11-01T00:23:17.759Z,952.47
2022-11-01T00:24:17.725Z,952.5
2022-11-01T00:25:17.715Z,952.45
2022-11-01T00:26:17.709Z,952.5
2022-11-01T00:27:17.696Z,952.55
2022-11-01T00:28:17.687Z,952.54
2022-11-01T00:29:17.676Z,952.52
2022-11-01T00:30:17.667Z,952.52
2022-11-01T00:31:17.673Z,952.51
2022-11-01T00:32:17.647Z,952.55
2022-11-01T00:33:17.636Z,952.44
2022-11-01T00:34:17.643Z,952.51
2022-11-01T00:35:17.628Z,952.57
2022-11-01T00:36:17.634Z,952.6
2022-11-01T00:37:17.601Z,952.55
2022-11-01T00:38:17.591Z,952.56
2022-11-01T00:39:17.619Z,952.5
2022-11-01T00:40:17.580Z,952.58
2022-11-01T00:41:17.561Z,952.53
2022-11-01T00:42:17.549Z,952.53
2022-11-01T00:44:17.529Z,952.55
2022-11-01T00:45:17.518Z,952.62
2022-11-01T00:46:17.509Z,952.56
2022-11-01T00:47:17.498Z,952.68
2022-11-01T00:48:17.493Z,952.64
2022-11-01T00:49:17.479Z,952.6
2022-11-01T00:50:17.471Z,952.5
2022-11-01T00:51:17.457Z,952.68
2022-11-01T00:52:17.451Z,952.7
2022-11-01T00:53:17.441Z,952.69
2022-11-01T00:54:17.434Z,952.66
2022-11-01T00:55:17.446Z,952.7
2022-11-01T00:56:17.413Z,952.74
2022-11-01T00:57:17.403Z,952.77
2022-11-01T00:58:17.394Z,952.84
2022-11-01T00:59:17.385Z,952.78
2022-11-01T01:00:17.375Z,952.71
2022-11-01T01:01:17.486Z,952.69
2022-11-01T01:02:17.497Z,952.71
2022-11-01T01:03:17.342Z,952.69
2022-11-01T01:04:17.334Z,952.75
2022-11-01T01:05:17.324Z,952.75
2022-11-01T01:06:17.317Z,952.76
2022-11-01T01:07:17.305Z,952.72
2022-11-01T01:08:17.295Z,952.75
2022-11-01T01:09:17.285Z,952.73
2022-11-01T01:10:17.276Z,952.73
2022-11-01T01:11:17.304Z,952.58
2022-11-01T01:12:17.257Z,952.64
2022-11-01T01:13:17.247Z,952.75
2022-11-01T01:14:17.237Z,952.66
2022-11-01T01:15:17.229Z,952.71
2022-11-01T01:16:17.217Z,952.68
2022-11-01T01:17:17.211Z,952.68
2022-11-01T01:18:17.198Z,952.69
2022-11-01T01:19:17.191Z,952.7
2022-11-01T01:20:17.180Z,952.66
2022-11-01T01:21:17.172Z,952.6
2022-11-01T01:22:17.160Z,952.53
2022-11-01T01:23:17.153Z,952.54
2022-11-01T01:24:17.142Z,952.59
2022-11-01T01:25:17.134Z,952.62
2022-11-01T01:26:17.123Z,952.56
2022-11-01T01:27:17.140Z,952.58
2022-11-01T01:28:17.105Z,952.55
2022-11-01T01:29:17.095Z,952.54
2022-11-01T01:30:17.083Z,952.62
2022-11-01T01:31:17.074Z,952.6
2022-11-01T01:32:17.066Z,952.6
2022-11-01T01:33:17.065Z,952.6
2022-11-01T01:34:17.044Z,952.62
2022-11-01T01:35:17.036Z,952.63
2022-11-01T01:36:17.025Z,952.68
2022-11-01T01:37:17.016Z,952.65
2022-11-01T01:38:17.008Z,952.6
2022-11-01T01:39:16.998Z,952.67
2022-11-01T01:40:16.986Z,952.66
2022-11-01T01:41:16.977Z,952.71
2022-11-01T01:42:16.968Z,952.65
2022-11-01T01:43:16.981Z,952.63
2022-11-01T01:44:16.948Z,952.54
2022-11-01T01:45:16.940Z,952.57
2022-11-01T01:46:16.928Z,952.56
2022-11-01T01:47:16.921Z,952.55
2022-11-01T01:48:16.908Z,952.62
2022-11-01T01:49:16.904Z,952.71
2022-11-01T01:50:16.889Z,952.63
2022-11-01T01:51:16.882Z,952.61
2022-11-01T01:52:16.869Z,952.56
2022-11-01T01:53:16.864Z,952.59
2022-11-01T01:54:16.851Z,952.52
2022-11-01T01:55:16.842Z,952.51
2022-11-01T01:56:16.832Z,952.47
2022-11-01T01:57:16.824Z,952.41
2022-11-01T01:58:16.811Z,952.39
2022-11-01T01:59:16.831Z,952.49
2022-11-01T02:00:16.913Z,952.42
2022-11-01T02:01:17.026Z,952.34
2022-11-01T02:02:16.920Z,952.29
2022-11-01T02:03:16.883Z,952.35
2022-11-01T02:04:16.875Z,952.38
2022-11-01T02:05:16.865Z,952.27
2022-11-01T02:06:16.906Z,952.21
2022-11-01T02:07:16.845Z,952.3
2022-11-01T02:08:16.835Z,952.33
2022-11-01T02:09:16.825Z,952.26
2022-11-01T02:10:16.816Z,952.27
2022-11-01T02:11:16.810Z,952.26
2022-11-01T02:12:16.798Z,952.26
2022-11-01T02:13:16.785Z,952.22
2022-11-01T02:14:16.779Z,952.28
2022-11-01T02:15:16.789Z,952.2
2022-11-01T02:16:16.757Z,952.24
2022-11-01T02:17:16.747Z,952.42
2022-11-01T02:18:16.738Z,952.34
2022-11-01T02:19:16.726Z,952.3
2022-11-01T02:20:16.721Z,952.31
2022-11-01T02:21:16.706Z,952.31
2022-11-01T02:22:16.699Z,952.31
2022-11-01T02:23:16.692Z,952.34
2022-11-01T02:24:16.680Z,952.46
2022-11-01T02:25:16.666Z,952.52
2022-11-01T02:26:16.661Z,952.44
2022-11-01T02:27:16.648Z,952.49
2022-11-01T02:28:16.638Z,952.37
2022-11-01T02:29:16.627Z,952.5
2022-11-01T02:30:16.623Z,952.45
2022-11-01T02:31:16.637Z,952.41
2022-11-01T02:32:16.598Z,952.47
2022-11-01T02:33:16.587Z,952.46
2022-11-01T02:34:16.580Z,952.34
2022-11-01T02:35:16.570Z,952.36
2022-11-01T02:36:16.563Z,952.49
2022-11-01T02:37:16.549Z,952.72
2022-11-01T02:38:16.542Z,952.78
2022-11-01T02:39:16.591Z,952.7
2022-11-01T02:40:16.527Z,952.7
2022-11-01T02:41:16.507Z,952.77
2022-11-01T02:42:16.500Z,952.74
2022-11-01T02:43:16.489Z,952.68
2022-11-01T02:44:16.479Z,952.7
2022-11-01T02:45:16.469Z,952.67
2022-11-01T02:46:16.460Z,952.61
2022-11-01T02:47:16.472Z,952.64
2022-11-01T02:48:16.439Z,952.57
2022-11-01T02:49:16.429Z,952.68
2022-11-01T02:50:16.420Z,952.75
2022-11-01T02:51:16.409Z,952.81
2022-11-01T02:52:16.401Z,952.96
2022-11-01T02:53:16.389Z,952.94
2022-11-01T02:54:16.379Z,952.95
2022-11-01T02:55:16.369Z,952.96
2022-11-01T02:56:16.359Z,952.95
2022-11-01T02:57:16.351Z,952.98
2022-11-01T02:58:16.338Z,952.95
2022-11-01T02:59:16.330Z,952.9
2022-11-01T03:00:16.319Z,952.97
2022-11-01T03:01:16.429Z,952.99
2022-11-01T03:02:16.345Z,953.07
2022-11-01T03:03:16.314Z,953.08
2022-11-01T03:04:16.279Z,953.11
2022-11-01T03:05:16.273Z,953.13
2022-11-01T03:06:16.258Z,953.12
2022-11-01T03:07:16.250Z,953.1
2022-11-01T03:08:16.239Z,953.12
2022-11-01T03:09:16.229Z,953.11
2022-11-01T03:10:16.217Z,953.16
2022-11-01T03:11:16.209Z,953.14
2022-11-01T03:12:16.248Z,953.14
2022-11-01T03:13:16.189Z,953.18
2022-11-01T03:14:16.181Z,953.12
2022-11-01T03:15:16.169Z,953.12
2022-11-01T03:16:16.157Z,953.13
2022-11-01T03:17:16.148Z,953.09
2022-11-01T03:18:16.136Z,953.09
2022-11-01T03:19:16.151Z,953.15
2022-11-01T03:20:16.116Z,953.11
2022-11-01T03:21:16.108Z,953.14
2022-11-01T03:22:16.096Z,953.23
2022-11-01T03:23:16.088Z,953.28
2022-11-01T03:24:16.075Z,953.27
2022-11-01T03:25:16.067Z,953.18
2022-11-01T03:26:16.059Z,953.17
2022-11-01T03:27:16.045Z,953.11
2022-11-01T03:28:16.033Z,953.12
2022-11-01T03:29:16.024Z,953.13
2022-11-01T03:30:16.015Z,953.23
2022-11-01T03:31:16.004Z,953.31
2022-11-01T03:32:15.993Z,953.33
2022-11-01T03:49:39.166Z,953.29
2022-11-01T03:50:39.124Z,953.24
2022-11-01T03:51:39.112Z,953.26
2022-11-01T03:52:39.096Z,953.23
2022-11-01T03:53:39.086Z,953.21
2022-11-01T03:54:39.071Z,953.23
2022-11-01T03:55:39.063Z,953.2
2022-11-01T03:56:39.046Z,953.19
2022-11-01T03:57:39.034Z,953.25
2022-11-01T03:58:39.022Z,953.3
2022-11-01T03:59:39.010Z,953.32
2022-11-01T04:00:38.997Z,953.34
2022-11-01T04:01:39.126Z,953.28
2022-11-01T04:02:38.975Z,953.29
2022-11-01T04:03:38.963Z,953.29
2022-11-01T04:04:38.951Z,953.31
2022-11-01T04:05:38.964Z,953.31
2022-11-01T04:06:38.928Z,953.28
2022-11-01T04:07:38.917Z,953.33
2022-11-01T04:08:38.906Z,953.28
2022-11-01T04:09:38.900Z,953.26
2022-11-01T04:10:38.884Z,953.28
2022-11-01T04:11:38.874Z,953.28
2022-11-01T04:12:38.862Z,953.29
2022-11-01T04:13:38.853Z,953.26
2022-11-01T04:14:38.839Z,953.21
2022-11-01T04:15:38.829Z,953.25
2022-11-01T04:16:38.818Z,953.24
2022-11-01T04:17:38.809Z,953.28
2022-11-01T04:19:38.938Z,953.22
2022-11-01T04:20:38.926Z,953.16
2022-11-01T04:21:38.936Z,953.15
2022-11-01T04:22:38.922Z,953.12
2022-11-01T04:23:38.923Z,953.11
2022-11-01T04:24:38.879Z,953.12
2022-11-01T04:25:38.870Z,953.15
2022-11-01T04:26:38.859Z,953.15
2022-11-01T04:27:38.850Z,953.15
2022-11-01T04:28:38.838Z,953.24
2022-11-01T04:29:38.828Z,953.24
2022-11-01T04:30:38.816Z,953.21
2022-11-01T04:31:38.810Z,953.21
2022-11-01T04:32:38.794Z,953.21
2022-11-01T04:33:38.800Z,953.18
2022-11-01T04:34:38.773Z,953.25
2022-11-01T04:35:38.767Z,953.2
2022-11-01T04:36:38.754Z,953.16
2022-11-01T04:37:38.769Z,953.19
2022-11-01T04:38:38.733Z,953.17
2022-11-01T04:39:38.724Z,953.18
2022-11-01T04:40:38.713Z,953.18
2022-11-01T04:41:38.702Z,953.19
2022-11-01T04:42:38.693Z,953.15
2022-11-01T04:43:38.681Z,953.15
2022-11-01T04:44:38.671Z,953.14
2022-11-01T04:45:38.659Z,953.11
2022-11-01T04:46:38.652Z,953.11
2022-11-01T04:47:38.641Z,953.17
2022-11-01T04:48:38.632Z,953.17
2022-11-01T04:49:38.621Z,953.22
2022-11-01T04:50:38.609Z,953.23
2022-11-01T04:52:38.590Z,953.21
2022-11-01T04:53:38.600Z,953.22
2022-11-01T04:54:38.569Z,953.23
2022-11-01T04:55:38.560Z,953.25
2022-11-01T04:56:38.550Z,953.23
2022-11-01T04:57:38.537Z,953.26
2022-11-01T04:58:41.518Z,953.28
2022-11-01T04:59:38.519Z,953.27
2022-11-01T05:00:38.647Z,953.28
2022-11-01T05:01:38.591Z,953.3
2022-11-01T05:02:38.491Z,953.28
2022-11-01T05:03:38.479Z,953.29
2022-11-01T05:04:38.471Z,953.32
2022-11-01T05:05:38.460Z,953.29
2022-11-01T05:06:38.452Z,953.27
2022-11-01T05:07:38.439Z,953.35
2022-11-01T05:08:38.431Z,953.35
2022-11-01T05:09:38.445Z,953.27
2022-11-01T05:10:38.415Z,953.3
2022-11-01T05:11:38.407Z,953.33
2022-11-01T05:12:38.393Z,953.29
2022-11-01T05:13:38.382Z,953.3
2022-11-01T05:14:38.373Z,953.28
2022-11-01T05:15:39.827Z,953.33
2022-11-01T05:16:38.355Z,953.34
2022-11-01T05:17:38.344Z,953.39
2022-11-01T05:18:38.335Z,953.36
2022-11-01T05:19:38.325Z,953.35
2022-11-01T05:20:38.317Z,953.4
2022-11-01T05:21:38.306Z,953.44
2022-11-01T05:22:38.296Z,953.41
2022-11-01T05:23:38.286Z,953.47
2022-11-01T05:24:38.315Z,953.46
2022-11-01T05:25:38.459Z,953.4
2022-11-01T05:26:38.260Z,953.43
2022-11-01T05:27:38.249Z,953.47
2022-11-01T05:28:38.241Z,953.46
2022-11-01T05:29:38.229Z,953.47
2022-11-01T05:30:38.222Z,953.48
2022-11-01T05:31:38.213Z,953.49
2022-11-01T05:32:38.200Z,953.54
2022-11-01T05:33:38.193Z,953.53
2022-11-01T05:34:38.185Z,953.53
2022-11-01T05:35:38.175Z,953.52
2022-11-01T05:36:38.163Z,953.54
2022-11-01T05:37:38.157Z,953.54
2022-11-01T05:38:38.148Z,953.61
2022-11-01T05:39:38.136Z,953.56
2022-11-01T05:40:38.127Z,953.62
2022-11-01T05:41:38.142Z,953.58
2022-11-01T05:42:38.107Z,953.62
2022-11-01T05:43:38.097Z,953.63
2022-11-01T05:44:38.088Z,953.64
2022-11-01T05:45:38.081Z,953.65
2022-11-01T05:46:38.070Z,953.68
2022-11-01T05:47:38.061Z,953.68
2022-11-01T05:48:38.050Z,953.68
2022-11-01T05:49:38.042Z,953.71
2022-11-01T05:50:38.032Z,953.7
2022-11-01T05:51:38.023Z,953.67
2022-11-01T05:52:38.013Z,953.68
2022-11-01T05:53:38.004Z,953.66
2022-11-01T05:54:37.994Z,953.65
2022-11-01T05:55:37.985Z,953.66
2022-11-01T05:56:37.974Z,953.69
2022-11-01T05:57:38.037Z,953.71
2022-11-01T05:58:37.954Z,953.72
2022-11-01T05:59:37.945Z,953.73
2022-11-01T06:00:37.934Z,953.73
2022-11-01T06:01:37.992Z,953.72
2022-11-01T06:02:38.005Z,953.79
2022-11-01T06:03:37.907Z,953.84
2022-11-01T06:04:37.896Z,953.79
2022-11-01T06:05:37.886Z,953.8
2022-11-01T06:06:37.881Z,953.82
2022-11-01T06:07:37.868Z,953.84
2022-11-01T06:08:37.857Z,953.84
2022-11-01T06:09:37.849Z,953.84
2022-11-01T06:10:37.837Z,953.92
2022-11-01T06:11:41.462Z,953.9
2022-11-01T06:12:37.817Z,953.9
2022-11-01T06:13:37.956Z,953.91
2022-11-01T06:14:37.923Z,953.91
2022-11-01T06:15:38.874Z,953.93
2022-11-01T06:16:37.901Z,953.89
2022-11-01T06:17:37.892Z,953.94
2022-11-01T06:18:37.880Z,953.94
2022-11-01T06:19:37.873Z,953.95
2022-11-01T06:20:37.862Z,953.97
2022-11-01T06:21:37.854Z,953.95
2022-11-01T06:22:37.843Z,953.97
2022-11-01T06:23:37.831Z,953.96
2022-11-01T06:24:37.823Z,953.91
2022-11-01T06:25:37.814Z,953.96
2022-11-01T06:26:37.806Z,953.96
2022-11-01T06:27:37.792Z,954.04
2022-11-01T06:28:37.786Z,954.05
2022-11-01T06:29:37.795Z,954.04
2022-11-01T06:30:37.766Z,954.09
2022-11-01T06:31:37.753Z,954.1
2022-11-01T06:32:37.744Z,954.14
2022-11-01T06:33:37.734Z,954.14
2022-11-01T06:34:40.798Z,954.15
2022-11-01T06:35:37.714Z,954.16
2022-11-01T06:36:37.706Z,954.17
2022-11-01T06:37:37.695Z,954.16
2022-11-01T06:38:37.688Z,954.19
2022-11-01T06:39:37.674Z,954.21
2022-11-01T06:40:37.666Z,954.29
2022-11-01T06:41:37.656Z,954.19
2022-11-01T06:42:39.396Z,954.21
2022-11-01T06:43:37.636Z,954.24
2022-11-01T06:44:37.632Z,954.29
2022-11-01T06:45:37.645Z,954.32
2022-11-01T06:46:37.609Z,954.34
2022-11-01T06:48:37.592Z,954.43
2022-11-01T06:49:37.581Z,954.46
2022-11-01T06:50:37.578Z,954.5
2022-11-01T06:51:38.126Z,954.44
2022-11-01T06:52:38.117Z,954.37
2022-11-01T06:53:38.106Z,954.38
2022-11-01T06:54:38.099Z,954.42
2022-11-01T06:55:38.089Z,954.44
2022-11-01T06:56:38.081Z,954.51
2022-11-01T06:57:38.069Z,954.39
2022-11-01T06:58:38.064Z,954.43
2022-11-01T06:59:38.053Z,954.4
2022-11-01T07:00:38.045Z,954.43
2022-11-01T07:01:38.263Z,954.47
2022-11-01T07:02:38.235Z,954.47
2022-11-01T07:03:38.016Z,954.46
2022-11-01T07:04:38.010Z,954.44
2022-11-01T07:05:38.005Z,954.47
2022-11-01T07:06:37.993Z,954.51
2022-11-01T07:07:37.983Z,954.5
2022-11-01T07:08:37.975Z,954.53
2022-11-01T07:09:37.964Z,954.52
2022-11-01T07:10:37.965Z,954.58
2022-11-01T07:11:37.947Z,954.59
2022-11-01T07:12:37.940Z,954.59
2022-11-01T07:13:37.930Z,954.68
2022-11-01T07:14:37.922Z,954.69
2022-11-01T07:15:37.915Z,954.67
2022-11-01T07:16:37.905Z,954.73
2022-11-01T07:17:37.925Z,954.74
2022-11-01T07:18:37.888Z,954.77
2022-11-01T07:19:37.880Z,954.79
2022-11-01T07:20:37.880Z,954.85
2022-11-01T07:21:37.863Z,954.92
2022-11-01T07:22:37.853Z,954.9
2022-11-01T07:23:37.848Z,954.87
2022-11-01T07:24:37.838Z,954.93
2022-11-01T07:25:37.830Z,954.95
2022-11-01T07:26:37.819Z,955.06
2022-11-01T07:27:37.815Z,955.15
2022-11-01T07:28:37.806Z,955.17
2022-11-01T07:29:37.798Z,955.12
2022-11-01T07:30:37.792Z,955.09
2022-11-01T07:31:37.783Z,955.12
2022-11-01T07:32:39.945Z,955.09
2022-11-01T07:33:37.788Z,955.15
2022-11-01T07:34:37.756Z,955.11
2022-11-01T07:35:37.750Z,955.16
2022-11-01T07:36:37.756Z,955.18
2022-11-01T07:37:37.732Z,955.13
2022-11-01T07:38:37.723Z,955.16
2022-11-01T07:39:37.715Z,955.14
2022-11-01T07:40:37.706Z,955.19
2022-11-01T07:41:37.698Z,955.22
2022-11-01T07:42:37.691Z,955.17
2022-11-01T07:43:37.683Z,955.08
2022-11-01T07:44:37.675Z,955.11
2022-11-01T07:45:37.670Z,955.15
2022-11-01T07:46:37.656Z,955.12
2022-11-01T07:47:37.650Z,955.12
2022-11-01T07:48:37.641Z,955.13
2022-11-01T07:49:37.656Z,955.18
2022-11-01T07:50:37.622Z,955.13
2022-11-01T07:51:37.619Z,955.14
2022-11-01T07:52:37.606Z,955.15
2022-11-01T07:53:37.600Z,955.16
2022-11-01T07:54:37.595Z,955.12
2022-11-01T07:55:37.585Z,955.11
2022-11-01T07:56:37.575Z,955.1
2022-11-01T07:57:37.568Z,955.08
2022-11-01T07:58:37.557Z,955.08
2022-11-01T07:59:37.549Z,955.13
2022-11-01T08:00:37.610Z,955.17
2022-11-01T08:01:37.683Z,955.16
2022-11-01T08:02:37.564Z,955.18
2022-11-01T08:03:37.527Z,955.12
2022-11-01T08:04:37.514Z,955.13
2022-11-01T08:05:37.533Z,955.16
2022-11-01T08:06:37.494Z,955.17
2022-11-01T08:07:37.485Z,955.15
2022-11-01T08:08:37.476Z,955.08
2022-11-01T08:09:37.472Z,955.12
2022-11-01T08:10:37.462Z,955.15
2022-11-01T08:11:37.452Z,955.17
2022-11-01T08:12:37.443Z,955.15
2022-11-01T08:13:37.433Z,955.16
2022-11-01T08:14:37.427Z,955.15
2022-11-01T08:15:37.417Z,955.2
2022-11-01T08:16:37.410Z,955.15
2022-11-01T08:17:37.402Z,955.16
2022-11-01T08:18:37.393Z,955.2
2022-11-01T08:19:37.386Z,955.19
2022-11-01T08:20:37.378Z,955.23
2022-11-01T08:21:37.392Z,955.22
2022-11-01T08:22:37.403Z,955.24
2022-11-01T08:23:37.352Z,955.3
2022-11-01T08:24:37.345Z,955.33
2022-11-01T08:25:37.335Z,955.36
2022-11-01T08:26:37.328Z,955.41
2022-11-01T08:27:37.320Z,955.4
2022-11-01T08:28:37.312Z,955.48
2022-11-01T08:29:37.303Z,955.42
2022-11-01T08:30:37.298Z,955.46
2022-11-01T08:31:37.289Z,955.44
2022-11-01T08:32:37.283Z,955.38
2022-11-01T08:33:37.273Z,955.38
2022-11-01T08:34:37.267Z,955.4
2022-11-01T08:35:37.256Z,955.44
2022-11-01T08:36:37.253Z,955.39
2022-11-01T08:37:37.266Z,955.4
2022-11-01T08:38:37.235Z,955.44
2022-11-01T08:39:37.226Z,955.47
2022-11-01T08:40:37.224Z,955.51
2022-11-01T08:41:37.399Z,955.47
2022-11-01T08:42:37.204Z,955.44
2022-11-01T08:43:39.589Z,955.42
2022-11-01T08:44:37.189Z,955.43
2022-11-01T08:45:37.179Z,955.4
2022-11-01T08:46:37.786Z,955.39
2022-11-01T08:47:37.776Z,955.4
2022-11-01T08:48:37.770Z,955.46
2022-11-01T08:49:37.760Z,955.45
2022-11-01T08:50:37.755Z,955.5
2022-11-01T08:51:37.745Z,955.47
2022-11-01T08:52:37.738Z,955.45
2022-11-01T08:53:37.753Z,955.44
2022-11-01T08:54:37.725Z,955.51
2022-11-01T08:55:38.328Z,955.47
2022-11-01T08:56:37.706Z,955.46
2022-11-01T08:57:37.739Z,955.5
2022-11-01T08:58:37.694Z,955.41
2022-11-01T08:59:37.686Z,955.48
2022-11-01T09:00:37.676Z,955.49
2022-11-01T09:01:37.773Z,955.49
2022-11-01T09:02:37.719Z,955.47
2022-11-01T09:03:37.655Z,955.49
2022-11-01T09:04:37.649Z,955.5
2022-11-01T09:05:37.644Z,955.52
2022-11-01T09:06:37.635Z,955.56
2022-11-01T09:07:37.628Z,955.54
2022-11-01T09:08:37.914Z,955.5
2022-11-01T09:09:37.929Z,955.45
2022-11-01T09:10:38.049Z,955.49
2022-11-01T09:11:37.893Z,955.48
2022-11-01T09:12:37.920Z,955.48
2022-11-01T09:13:37.878Z,955.49
2022-11-01T09:14:37.869Z,955.53
2022-11-01T09:15:37.862Z,955.52
2022-11-01T09:16:37.854Z,955.5
2022-11-01T09:17:37.854Z,955.48
2022-11-01T09:18:37.838Z,955.58
2022-11-01T09:19:37.834Z,955.68
2022-11-01T09:20:37.824Z,955.68
2022-11-01T09:21:37.819Z,955.7
2022-11-01T09:22:37.812Z,955.7
2022-11-01T09:23:37.805Z,955.62
2022-11-01T09:24:37.798Z,955.68
2022-11-01T09:25:37.814Z,955.71
2022-11-01T09:26:37.783Z,955.77
2022-11-01T09:27:37.779Z,955.77
2022-11-01T09:28:37.769Z,955.82
2022-11-01T09:29:37.764Z,955.84
2022-11-01T09:30:41.451Z,955.76
2022-11-01T09:31:37.748Z,955.83
2022-11-01T09:32:37.742Z,955.8
2022-11-01T09:33:37.733Z,955.84
2022-11-01T09:34:37.725Z,955.84
2022-11-01T09:35:37.720Z,955.81
2022-11-01T09:36:37.710Z,955.82
2022-11-01T09:37:37.705Z,955.83
2022-11-01T09:38:37.697Z,955.8
2022-11-01T09:39:37.692Z,955.81
2022-11-01T09:40:37.684Z,955.84
2022-11-01T09:41:37.701Z,955.84
2022-11-01T09:42:37.668Z,955.82
2022-11-01T09:43:37.663Z,955.75
2022-11-01T09:44:37.655Z,955.77
2022-11-01T09:45:37.654Z,955.76
2022-11-01T09:46:37.639Z,955.7
2022-11-01T09:47:37.633Z,955.77
2022-11-01T09:48:37.627Z,955.73
2022-11-01T09:49:37.617Z,955.77
2022-11-01T09:50:37.612Z,955.82
2022-11-01T09:51:37.603Z,955.86
2022-11-01T09:52:37.599Z,955.9
2022-11-01T09:53:37.588Z,955.89
2022-11-01T09:54:37.586Z,955.92
2022-11-01T09:55:37.574Z,955.89
2022-11-01T09:56:37.569Z,955.96
2022-11-01T09:57:37.585Z,955.96
2022-11-01T09:58:37.554Z,955.98
2022-11-01T09:59:37.549Z,955.99
2022-11-01T10:00:37.541Z,955.99
2022-11-01T10:01:37.601Z,956
2022-11-01T10:02:37.528Z,956.02
2022-11-01T10:03:37.516Z,955.98
2022-11-01T10:04:37.511Z,955.95
2022-11-01T10:05:37.502Z,955.97
2022-11-01T10:06:37.496Z,955.99
2022-11-01T10:07:37.495Z,956.01
2022-11-01T10:08:37.485Z,956.06
2022-11-01T10:09:37.472Z,956.01
2022-11-01T10:10:37.466Z,955.97
2022-11-01T10:11:37.468Z,955.92
2022-11-01T10:12:37.452Z,955.9
2022-11-01T10:13:37.470Z,955.91
2022-11-01T10:14:37.436Z,955.91
2022-11-01T10:15:37.430Z,955.89
2022-11-01T10:16:37.426Z,955.96
2022-11-01T10:17:37.412Z,955.97
2022-11-01T10:18:37.408Z,955.9
2022-11-01T10:19:37.399Z,955.87
2022-11-01T10:20:37.393Z,955.85
2022-11-01T10:21:37.387Z,955.84
2022-11-01T10:22:37.378Z,955.81
2022-11-01T10:23:37.369Z,955.8
2022-11-01T10:24:37.364Z,955.86
2022-11-01T10:25:37.355Z,955.88
2022-11-01T10:26:37.350Z,955.85
2022-11-01T10:27:37.522Z,955.88
2022-11-01T10:28:37.338Z,955.9
2022-11-01T10:29:37.356Z,955.92
2022-11-01T10:30:37.320Z,955.91
2022-11-01T10:31:37.312Z,955.94
2022-11-01T10:32:37.305Z,955.97
2022-11-01T10:33:37.298Z,956.01
2022-11-01T10:34:37.291Z,956.02
2022-11-01T10:35:37.283Z,956.04
2022-11-01T10:37:37.281Z,955.98
2022-11-01T10:40:13.002Z,955.98
2022-11-01T10:41:12.470Z,956
2022-11-01T10:42:12.465Z,955.97
2022-11-01T10:43:12.455Z,955.97
2022-11-01T10:44:12.451Z,955.98
2022-11-01T10:45:12.467Z,956
2022-11-01T10:46:12.436Z,955.99
2022-11-01T10:47:12.428Z,955.96
2022-11-01T10:48:12.421Z,955.98
2022-11-01T10:49:12.412Z,955.96
2022-11-01T10:50:12.458Z,955.98
2022-11-01T10:51:12.399Z,956.04
2022-11-01T10:52:12.392Z,956
2022-11-01T10:53:12.429Z,955.98
2022-11-01T10:54:12.382Z,956
2022-11-01T10:55:12.370Z,955.87
2022-11-01T10:56:12.366Z,955.92
2022-11-01T10:57:12.356Z,955.92
2022-11-01T10:58:12.367Z,955.92
2022-11-01T10:59:12.342Z,955.95
2022-11-01T11:00:12.402Z,955.97
2022-11-01T11:01:12.470Z,955.99
2022-11-01T11:02:12.498Z,956
2022-11-01T11:03:12.315Z,956.03
2022-11-01T11:04:12.307Z,956.02
2022-11-01T11:05:12.301Z,956.07
2022-11-01T11:06:12.296Z,956.09
2022-11-01T11:07:12.287Z,956.08
2022-11-01T11:08:12.306Z,956.05
2022-11-01T11:09:12.275Z,956.05
2022-11-01T11:10:12.269Z,956.08
2022-11-01T11:11:12.263Z,956.01
2022-11-01T11:12:12.256Z,955.98
2022-11-01T11:13:12.248Z,955.99
2022-11-01T11:14:12.242Z,955.96
2022-11-01T11:15:12.236Z,955.97
2022-11-01T11:16:12.230Z,955.95
2022-11-01T11:17:12.244Z,955.98
2022-11-01T11:18:12.218Z,955.94
2022-11-01T11:19:12.208Z,956
2022-11-01T11:20:12.204Z,956.01
2022-11-01T11:21:12.222Z,955.94
2022-11-01T11:22:12.190Z,955.95
2022-11-01T11:23:12.182Z,955.95
2022-11-01T11:24:12.177Z,955.93
2022-11-01T11:25:12.168Z,956.01
2022-11-01T11:26:12.165Z,955.98
2022-11-01T11:27:12.159Z,955.99
2022-11-01T11:28:12.151Z,955.98
2022-11-01T11:29:12.150Z,956.01
2022-11-01T11:30:12.141Z,956.01
2022-11-01T11:31:12.133Z,956.03
2022-11-01T11:32:12.128Z,956
2022-11-01T11:33:12.144Z,956.01
2022-11-01T11:34:12.119Z,955.99
2022-11-01T11:35:12.108Z,956.02
2022-11-01T11:36:12.099Z,955.98
2022-11-01T11:37:12.095Z,955.97
2022-11-01T11:38:12.087Z,956.02
2022-11-01T11:39:12.082Z,956.01
2022-11-01T11:40:12.073Z,956.03
2022-11-01T11:41:12.068Z,956.03
2022-11-01T11:42:12.063Z,956.02
2022-11-01T11:43:12.070Z,956.01
2022-11-01T11:44:12.047Z,956.06
2022-11-01T11:45:12.043Z,956.04
2022-11-01T11:46:12.034Z,956.02
2022-11-01T11:47:12.028Z,955.93
2022-11-01T11:48:12.022Z,955.99
2022-11-01T11:49:12.039Z,956.04
2022-11-01T11:50:12.007Z,956.02
2022-11-01T11:51:12.003Z,956.05
2022-11-01T11:52:11.995Z,956.05
2022-11-01T11:53:11.990Z,956.05
2022-11-01T11:54:11.980Z,956.08
2022-11-01T11:55:11.976Z,956.12
2022-11-01T11:56:11.984Z,956.05
2022-11-01T11:57:11.966Z,956.03
2022-11-01T11:58:11.955Z,956.07
2022-11-01T11:59:11.949Z,956.08
2022-11-01T12:00:11.962Z,956.08
2022-11-01T12:01:12.042Z,956.11
2022-11-01T12:02:13.344Z,956.04
2022-11-01T12:03:12.014Z,956.09
2022-11-01T12:04:11.916Z,956.04
2022-11-01T12:05:11.932Z,956.08
2022-11-01T12:06:11.900Z,956.1
2022-11-01T12:07:11.895Z,956.12
2022-11-01T12:08:11.893Z,956.19
2022-11-01T12:09:11.883Z,956.16
2022-11-01T12:10:11.893Z,956.28
2022-11-01T12:11:11.870Z,956.2
2022-11-01T12:12:11.863Z,956.19
2022-11-01T12:13:11.855Z,956.21
2022-11-01T12:14:11.849Z,956.16
2022-11-01T12:15:11.860Z,956.21
2022-11-01T12:16:12.259Z,956.28
2022-11-01T12:17:12.151Z,956.26
2022-11-01T12:18:14.551Z,956.29
2022-11-01T12:19:12.137Z,956.29
2022-11-01T12:20:12.130Z,956.3
2022-11-01T12:21:12.148Z,956.31
2022-11-01T12:22:12.115Z,956.3
2022-11-01T12:23:12.108Z,956.29
2022-11-01T12:24:12.103Z,956.28
2022-11-01T12:25:12.094Z,956.29
2022-11-01T12:26:13.851Z,956.25
2022-11-01T12:27:12.080Z,956.27
2022-11-01T12:28:12.073Z,956.28
2022-11-01T12:29:12.065Z,956.25
2022-11-01T12:30:12.060Z,956.24
2022-11-01T12:31:12.050Z,956.23
2022-11-01T12:32:12.043Z,956.25
2022-11-01T12:33:12.060Z,956.23
2022-11-01T12:34:12.030Z,956.26
2022-11-01T12:35:12.021Z,956.22
2022-11-01T12:36:12.022Z,956.24
2022-11-01T12:37:12.031Z,956.21
2022-11-01T12:38:12.002Z,956.23
2022-11-01T12:39:11.993Z,956.19
2022-11-01T12:40:11.997Z,956.16
2022-11-01T12:41:11.991Z,956.21
2022-11-01T12:42:11.981Z,956.2
2022-11-01T12:43:11.969Z,956.19
2022-11-01T12:44:11.957Z,956.21
2022-11-01T12:45:11.979Z,956.18
2022-11-01T12:46:11.951Z,956.12
2022-11-01T12:47:11.938Z,956.18
2022-11-01T12:48:11.928Z,956.14
2022-11-01T12:49:11.933Z,956.15
2022-11-01T12:50:11.932Z,956.18
2022-11-01T12:51:11.905Z,956.17
2022-11-01T12:52:11.915Z,956.14
2022-11-01T12:53:11.947Z,956.16
2022-11-01T12:54:11.884Z,956.18
2022-11-01T12:55:13.290Z,956.13